createdAt,value
2022-09-27T00:00:16.652Z,7.75
2022-09-27T00:00:39.366Z,8.18
2022-09-27T00:01:02.455Z,9.10
2022-09-27T00:01:25.563Z,9.50
2022-09-27T00:01:48.383Z,8.90
2022-09-27T00:02:13.645Z,9.68
2022-09-27T00:02:37.932Z,8.20
2022-09-27T00:03:00.803Z,8.18
2022-09-27T00:03:23.646Z,8.00
2022-09-27T00:03:46.416Z,8.73
2022-09-27T00:04:10.892Z,8.55
2022-09-27T00:04:33.791Z,8.73
2022-09-27T00:04:58.770Z,8.40
2022-09-27T00:05:21.609Z,8.70
2022-09-27T00:05:44.449Z,8.52
2022-09-27T00:06:08.641Z,8.48
2022-09-27T00:06:32.120Z,8.13
2022-09-27T00:06:54.891Z,8.85
2022-09-27T00:07:17.650Z,8.70
2022-09-27T00:07:40.457Z,8.43
2022-09-27T00:08:03.375Z,8.35
2022-09-27T00:08:26.421Z,8.15
2022-09-27T00:08:49.194Z,8.40
2022-09-27T00:09:15.216Z,9.82
2022-09-27T00:09:38.419Z,8.57
2022-09-27T00:10:01.156Z,8.82
2022-09-27T00:10:24.112Z,9.50
2022-09-27T00:10:46.878Z,9.48
2022-09-27T00:11:14.107Z,9.45
2022-09-27T00:11:39.056Z,11.40
2022-09-27T00:12:02.118Z,9.45
2022-09-27T00:12:24.957Z,10.32
2022-09-27T00:12:48.537Z,9.32
2022-09-27T00:13:11.315Z,8.65
2022-09-27T00:13:34.178Z,9.00
2022-09-27T00:13:57.294Z,9.30
2022-09-27T00:14:20.088Z,9.10
2022-09-27T00:14:43.010Z,8.90
2022-09-27T00:15:07.305Z,9.52
2022-09-27T00:15:30.098Z,9.98
2022-09-27T00:15:57.347Z,9.73
2022-09-27T00:16:20.309Z,9.13
2022-09-27T00:16:43.329Z,9.80
2022-09-27T00:17:06.099Z,10.02
2022-09-27T00:17:28.929Z,10.18
2022-09-27T00:17:53.508Z,10.23
2022-09-27T00:18:17.129Z,10.40
2022-09-27T00:18:40.191Z,11.20
2022-09-27T00:19:04.010Z,10.77
2022-09-27T00:19:27.204Z,10.93
2022-09-27T00:19:50.036Z,11.10
2022-09-27T00:20:12.821Z,10.70
2022-09-27T00:20:35.649Z,9.90
2022-09-27T00:21:04.279Z,10.68
2022-09-27T00:21:27.039Z,12.95
2022-09-27T00:21:50.570Z,11.50
2022-09-27T00:22:13.474Z,11.43
2022-09-27T00:22:36.353Z,11.88
2022-09-27T00:22:59.128Z,11.57
2022-09-27T00:23:21.948Z,11.73
2022-09-27T00:23:44.755Z,11.80
2022-09-27T00:24:07.648Z,11.30
2022-09-27T00:24:33.848Z,11.45
2022-09-27T00:24:56.575Z,12.23
2022-09-27T00:25:20.520Z,12.18
2022-09-27T00:25:43.189Z,12.30
2022-09-27T00:26:06.079Z,12.07
2022-09-27T00:26:29.691Z,12.18
2022-09-27T00:26:52.435Z,11.90
2022-09-27T00:27:15.360Z,11.80
2022-09-27T00:27:38.139Z,12.10
2022-09-27T00:28:01.184Z,11.32
2022-09-27T00:28:24.167Z,11.10
2022-09-27T00:28:47.217Z,11.48
2022-09-27T00:29:10.889Z,11.77
2022-09-27T00:29:33.921Z,12.40
2022-09-27T00:29:56.687Z,12.15
2022-09-27T00:30:20.578Z,11.63
2022-09-27T00:30:43.261Z,11.82
2022-09-27T00:31:10.272Z,12.55
2022-09-27T00:31:33.189Z,11.55
2022-09-27T00:31:56.097Z,11.70
2022-09-27T00:32:18.977Z,11.40
2022-09-27T00:32:41.776Z,12.63
2022-09-27T00:33:06.178Z,11.98
2022-09-27T00:33:28.951Z,11.75
2022-09-27T00:33:53.118Z,11.88
2022-09-27T00:34:19.522Z,11.82
2022-09-27T00:34:42.579Z,11.48
2022-09-27T00:35:05.822Z,11.60
2022-09-27T00:35:31.126Z,12.63
2022-09-27T00:35:53.867Z,12.05
2022-09-27T00:36:16.727Z,12.00
2022-09-27T00:36:39.512Z,11.32
2022-09-27T00:37:02.256Z,12.07
2022-09-27T00:37:26.132Z,12.52
2022-09-27T00:37:48.993Z,12.38
2022-09-27T00:38:11.786Z,13.60
2022-09-27T00:38:34.542Z,13.48
2022-09-27T00:38:57.500Z,13.57
2022-09-27T00:39:20.386Z,13.40
2022-09-27T00:39:43.140Z,13.50
2022-09-27T00:40:07.193Z,14.15
2022-09-27T00:40:30.081Z,13.70
2022-09-27T00:40:53.108Z,13.35
2022-09-27T00:41:17.410Z,13.85
2022-09-27T00:41:40.646Z,13.73
2022-09-27T00:42:03.401Z,13.82
2022-09-27T00:42:26.253Z,13.82
2022-09-27T00:42:49.085Z,13.88
2022-09-27T00:43:16.647Z,13.70
2022-09-27T00:43:47.898Z,13.02
2022-09-27T00:44:43.649Z,14.20
2022-09-27T00:45:13.179Z,13.60
2022-09-27T00:45:36.097Z,12.80
2022-09-27T00:45:59.745Z,13.80
2022-09-27T00:46:27.123Z,13.95
2022-09-27T00:46:51.632Z,13.63
2022-09-27T00:47:17.600Z,13.40
2022-09-27T00:47:47.804Z,13.77
2022-09-27T00:48:15.020Z,14.43
2022-09-27T00:48:37.848Z,14.20
2022-09-27T00:49:04.810Z,13.95
2022-09-27T00:49:29.428Z,14.20
2022-09-27T00:49:54.064Z,14.75
2022-09-27T00:50:25.501Z,14.68
2022-09-27T00:50:49.694Z,15.05
2022-09-27T00:51:12.374Z,14.98
2022-09-27T00:51:35.194Z,15.07
2022-09-27T00:52:02.889Z,15.93
2022-09-27T00:52:27.674Z,15.23
2022-09-27T00:52:55.228Z,14.68
2022-09-27T00:53:19.995Z,14.27
2022-09-27T00:53:46.729Z,14.38
2022-09-27T00:54:10.885Z,14.98
2022-09-27T00:54:33.999Z,14.88
2022-09-27T00:54:59.839Z,14.98
2022-09-27T00:55:26.460Z,15.45
2022-09-27T00:55:51.719Z,14.65
2022-09-27T00:56:16.874Z,15.20
2022-09-27T00:56:39.799Z,14.90
2022-09-27T00:57:03.210Z,14.68
2022-09-27T00:57:26.241Z,14.73
2022-09-27T00:57:49.631Z,14.93
2022-09-27T00:58:12.950Z,15.55
2022-09-27T00:58:37.595Z,14.05
2022-09-27T00:59:02.903Z,14.07
2022-09-27T00:59:27.061Z,14.10
2022-09-27T00:59:51.400Z,14.30
2022-09-27T01:00:15.553Z,13.80
2022-09-27T01:00:40.316Z,14.43
2022-09-27T01:01:04.407Z,14.00
2022-09-27T01:01:30.816Z,15.05
2022-09-27T01:01:56.442Z,13.75
2022-09-27T01:02:19.469Z,14.55
2022-09-27T01:02:44.559Z,14.63
2022-09-27T01:03:07.368Z,14.70
2022-09-27T01:03:37.004Z,14.35
2022-09-27T01:04:01.206Z,14.13
2022-09-27T01:04:26.594Z,13.98
2022-09-27T01:04:50.074Z,14.18
2022-09-27T01:05:14.239Z,14.07
2022-09-27T01:05:37.131Z,13.75
2022-09-27T01:05:59.900Z,13.77
2022-09-27T01:06:22.660Z,13.90
2022-09-27T01:06:45.430Z,13.73
2022-09-27T01:07:08.215Z,13.23
2022-09-27T01:07:31.355Z,13.63
2022-09-27T01:07:59.940Z,14.00
2022-09-27T01:08:23.990Z,14.13
2022-09-27T01:08:46.793Z,13.60
2022-09-27T01:09:11.026Z,13.70
2022-09-27T01:09:33.881Z,13.75
2022-09-27T01:09:56.624Z,13.50
2022-09-27T01:10:19.461Z,13.40
2022-09-27T01:10:48.480Z,13.93
2022-09-27T01:11:18.878Z,13.52
2022-09-27T01:11:43.339Z,12.63
2022-09-27T01:12:09.653Z,12.95
2022-09-27T01:12:37.852Z,13.18
2022-09-27T01:13:06.043Z,12.90
2022-09-27T01:13:34.149Z,13.40
2022-09-27T01:14:06.182Z,13.23
2022-09-27T01:14:48.589Z,12.57
2022-09-27T01:15:16.984Z,12.75
2022-09-27T01:15:43.540Z,12.80
2022-09-27T01:16:11.327Z,12.85
2022-09-27T01:16:36.665Z,12.85
2022-09-27T01:17:02.507Z,12.55
2022-09-27T01:17:36.140Z,12.60
2022-09-27T01:18:12.802Z,11.90
2022-09-27T01:18:39.385Z,13.23
2022-09-27T01:19:08.373Z,12.48
2022-09-27T01:19:47.843Z,12.38
2022-09-27T01:20:47.999Z,12.93
2022-09-27T01:21:39.335Z,13.30
2022-09-27T01:22:02.278Z,13.20
2022-09-27T01:22:25.407Z,13.25
2022-09-27T01:22:54.693Z,13.00
2022-09-27T01:23:31.228Z,14.15
2022-09-27T01:24:07.212Z,13.73
2022-09-27T01:24:55.366Z,13.35
2022-09-27T01:25:34.762Z,13.57
2022-09-27T01:26:03.422Z,13.90
2022-09-27T01:26:39.764Z,13.70
2022-09-27T01:27:33.565Z,12.77
2022-09-27T01:28:28.517Z,13.25
2022-09-27T01:28:57.304Z,12.68
2022-09-27T01:29:24.498Z,12.57
2022-09-27T01:29:55.282Z,12.02
2022-09-27T01:30:21.482Z,12.02
2022-09-27T01:30:46.668Z,11.70
2022-09-27T01:31:11.753Z,11.70
2022-09-27T01:31:36.154Z,11.48
2022-09-27T01:32:02.761Z,12.35
2022-09-27T01:32:29.759Z,12.00
2022-09-27T01:32:57.433Z,11.93
2022-09-27T01:33:37.013Z,18.15
2022-09-27T01:34:04.026Z,11.10
2022-09-27T01:34:27.762Z,11.68
2022-09-27T01:34:56.817Z,11.77
2022-09-27T01:35:23.332Z,11.70
2022-09-27T01:35:53.001Z,12.15
2022-09-27T01:36:21.202Z,10.98
2022-09-27T01:36:48.652Z,11.30
2022-09-27T01:37:14.393Z,11.13
2022-09-27T01:37:38.974Z,12.35
2022-09-27T01:38:11.888Z,11.35
2022-09-27T01:38:39.807Z,11.38
2022-09-27T01:39:12.305Z,11.15
2022-09-27T01:39:38.118Z,11.68
2022-09-27T01:40:02.439Z,11.32
2022-09-27T01:40:28.698Z,11.13
2022-09-27T01:40:54.732Z,11.23
2022-09-27T01:41:25.137Z,10.93
2022-09-27T01:41:51.657Z,11.90
2022-09-27T01:42:21.320Z,10.82
2022-09-27T01:42:47.528Z,10.82
2022-09-27T01:43:13.833Z,11.85
2022-09-27T01:43:39.517Z,11.70
2022-09-27T01:44:03.404Z,11.50
2022-09-27T01:44:29.934Z,11.23
2022-09-27T01:44:54.784Z,11.45
2022-09-27T01:45:21.790Z,11.77
2022-09-27T01:45:47.330Z,12.10
2022-09-27T01:46:11.996Z,11.80
2022-09-27T01:46:36.688Z,11.70
2022-09-27T01:47:01.464Z,12.27
2022-09-27T01:47:27.233Z,11.90
2022-09-27T01:47:51.849Z,11.75
2022-09-27T01:48:17.025Z,11.70
2022-09-27T01:48:42.400Z,12.27
2022-09-27T01:49:08.817Z,12.00
2022-09-27T01:49:35.360Z,12.20
2022-09-27T01:50:00.960Z,11.68
2022-09-27T01:50:27.209Z,12.05
2022-09-27T01:50:52.328Z,12.50
2022-09-27T01:51:16.222Z,11.82
2022-09-27T01:51:40.667Z,12.40
2022-09-27T01:52:04.543Z,12.13
2022-09-27T01:52:31.533Z,11.85
2022-09-27T01:52:55.362Z,11.73
2022-09-27T01:53:20.716Z,11.88
2022-09-27T01:53:44.738Z,12.10
2022-09-27T01:54:08.017Z,12.50
2022-09-27T01:54:33.342Z,13.25
2022-09-27T01:54:59.197Z,13.20
2022-09-27T01:55:24.758Z,13.90
2022-09-27T01:55:49.470Z,13.45
2022-09-27T01:56:15.205Z,13.20
2022-09-27T01:56:39.087Z,13.30
2022-09-27T01:57:01.916Z,12.88
2022-09-27T01:57:25.781Z,13.10
2022-09-27T01:57:59.888Z,13.35
2022-09-27T01:58:25.278Z,13.60
2022-09-27T01:58:50.559Z,13.80
2022-09-27T01:59:15.302Z,13.13
2022-09-27T01:59:41.159Z,13.55
2022-09-27T02:00:07.209Z,13.40
2022-09-27T02:00:31.465Z,13.73
2022-09-27T02:00:54.270Z,13.73
2022-09-27T02:01:20.428Z,14.45
2022-09-27T02:01:44.210Z,14.35
2022-09-27T02:02:08.934Z,14.23
2022-09-27T02:02:32.768Z,13.45
2022-09-27T02:02:57.010Z,14.27
2022-09-27T02:03:21.632Z,14.38
2022-09-27T02:03:46.691Z,13.95
2022-09-27T02:04:10.561Z,14.38
2022-09-27T02:04:33.450Z,14.57
2022-09-27T02:04:56.755Z,14.50
2022-09-27T02:05:19.796Z,14.63
2022-09-27T02:05:44.081Z,14.95
2022-09-27T02:06:12.510Z,14.77
2022-09-27T02:06:36.630Z,13.93
2022-09-27T02:07:01.280Z,15.00
2022-09-27T02:07:30.095Z,15.50
2022-09-27T02:07:53.985Z,15.65
2022-09-27T02:08:20.332Z,15.45
2022-09-27T02:08:45.287Z,15.77
2022-09-27T02:09:10.129Z,15.32
2022-09-27T02:09:35.523Z,15.10
2022-09-27T02:09:59.701Z,15.40
2022-09-27T02:10:23.644Z,15.65
2022-09-27T02:10:46.896Z,15.18
2022-09-27T02:11:11.121Z,14.65
2022-09-27T02:11:34.258Z,14.23
2022-09-27T02:11:59.256Z,14.52
2022-09-27T02:12:24.401Z,15.10
2022-09-27T02:12:49.486Z,15.75
2022-09-27T02:13:15.213Z,15.60
2022-09-27T02:13:40.485Z,15.10
2022-09-27T02:14:04.801Z,15.45
2022-09-27T02:14:28.568Z,15.30
2022-09-27T02:14:54.846Z,15.30
2022-09-27T02:15:17.749Z,15.43
2022-09-27T02:15:47.574Z,15.63
2022-09-27T02:16:16.390Z,15.40
2022-09-27T02:16:44.204Z,15.07
2022-09-27T02:17:09.442Z,13.82
2022-09-27T02:17:36.641Z,15.10
2022-09-27T02:18:00.500Z,14.90
2022-09-27T02:18:25.930Z,14.43
2022-09-27T02:18:53.591Z,14.57
2022-09-27T02:19:22.079Z,14.23
2022-09-27T02:19:50.589Z,14.83
2022-09-27T02:20:16.814Z,14.18
2022-09-27T02:20:40.634Z,14.10
2022-09-27T02:21:07.293Z,13.48
2022-09-27T02:21:36.968Z,13.77
2022-09-27T02:22:01.464Z,13.65
2022-09-27T02:22:28.618Z,14.55
2022-09-27T02:22:54.109Z,13.85
2022-09-27T02:23:19.464Z,14.23
2022-09-27T02:23:44.160Z,14.43
2022-09-27T02:24:07.058Z,13.45
2022-09-27T02:24:32.964Z,14.15
2022-09-27T02:24:57.951Z,14.75
2022-09-27T02:25:23.531Z,14.52
2022-09-27T02:25:50.576Z,14.57
2022-09-27T02:26:17.092Z,14.32
2022-09-27T02:26:44.671Z,14.40
2022-09-27T02:27:13.671Z,13.95
2022-09-27T02:27:38.781Z,13.75
2022-09-27T02:28:03.676Z,13.60
2022-09-27T02:28:28.466Z,13.35
2022-09-27T02:28:55.407Z,13.32
2022-09-27T02:29:19.667Z,13.95
2022-09-27T02:29:45.956Z,14.25
2022-09-27T02:30:10.847Z,14.02
2022-09-27T02:30:33.694Z,13.32
2022-09-27T02:30:58.030Z,14.20
2022-09-27T02:31:21.052Z,14.05
2022-09-27T02:31:43.931Z,14.07
2022-09-27T02:32:06.741Z,13.90
2022-09-27T02:32:30.245Z,13.85
2022-09-27T02:32:53.069Z,14.25
2022-09-27T02:33:15.864Z,13.90
2022-09-27T02:33:42.660Z,13.40
2022-09-27T02:34:07.679Z,13.82
2022-09-27T02:34:30.849Z,13.80
2022-09-27T02:34:54.896Z,13.40
2022-09-27T02:35:19.199Z,13.48
2022-09-27T02:35:41.985Z,13.55
2022-09-27T02:36:06.257Z,13.95
2022-09-27T02:36:29.148Z,14.35
2022-09-27T02:36:53.671Z,14.40
2022-09-27T02:37:16.461Z,13.57
2022-09-27T02:37:39.175Z,14.30
2022-09-27T02:38:02.075Z,14.60
2022-09-27T02:38:25.071Z,14.43
2022-09-27T02:38:47.835Z,13.93
2022-09-27T02:39:10.648Z,14.07
2022-09-27T02:39:33.390Z,15.63
2022-09-27T02:39:56.071Z,15.32
2022-09-27T02:40:20.390Z,15.02
2022-09-27T02:40:44.562Z,14.65
2022-09-27T02:41:14.428Z,14.73
2022-09-27T02:41:37.335Z,15.80
2022-09-27T02:42:00.305Z,15.20
2022-09-27T02:42:23.198Z,14.93
2022-09-27T02:42:48.718Z,15.27
2022-09-27T02:43:11.667Z,15.93
2022-09-27T02:43:34.877Z,15.77
2022-09-27T02:43:58.510Z,16.27
2022-09-27T02:44:21.478Z,16.08
2022-09-27T02:44:44.382Z,15.98
2022-09-27T02:45:08.637Z,15.98
2022-09-27T02:45:33.803Z,16.27
2022-09-27T02:46:07.373Z,15.93
2022-09-27T02:46:48.361Z,16.25
2022-09-27T02:47:29.371Z,16.40
2022-09-27T02:48:05.852Z,16.65
2022-09-27T02:48:31.928Z,17.02
2022-09-27T02:48:58.886Z,17.05
2022-09-27T02:49:31.826Z,16.70
2022-09-27T02:50:01.461Z,16.95
2022-09-27T02:51:08.415Z,17.13
2022-09-27T02:51:39.215Z,17.35
2022-09-27T02:52:07.190Z,17.60
2022-09-27T02:52:34.720Z,17.58
2022-09-27T02:53:00.305Z,17.05
2022-09-27T02:53:30.000Z,18.27
2022-09-27T02:54:03.554Z,17.17
2022-09-27T02:54:30.800Z,17.40
2022-09-27T02:54:57.909Z,16.30
2022-09-27T02:55:23.939Z,17.40
2022-09-27T02:55:50.565Z,17.70
2022-09-27T02:56:16.633Z,17.77
2022-09-27T02:56:44.055Z,16.98
2022-09-27T02:57:13.281Z,17.17
2022-09-27T02:57:41.624Z,17.20
2022-09-27T02:58:08.365Z,17.35
2022-09-27T02:58:36.165Z,17.08
2022-09-27T02:59:02.548Z,17.48
2022-09-27T02:59:28.639Z,17.10
2022-09-27T03:00:02.105Z,17.27
2022-09-27T03:00:26.884Z,17.52
2022-09-27T03:00:52.422Z,17.63
2022-09-27T03:01:20.677Z,17.70
2022-09-27T03:01:46.631Z,18.05
2022-09-27T03:02:13.725Z,17.98
2022-09-27T03:02:39.819Z,17.92
2022-09-27T03:03:04.632Z,17.55
2022-09-27T03:03:28.800Z,17.98
2022-09-27T03:03:53.756Z,17.90
2022-09-27T03:04:18.965Z,18.60
2022-09-27T03:04:44.260Z,17.73
2022-09-27T03:05:09.539Z,17.95
2022-09-27T03:05:35.231Z,18.17
2022-09-27T03:06:01.916Z,18.38
2022-09-27T03:06:24.759Z,18.02
2022-09-27T03:06:47.509Z,17.90
2022-09-27T03:07:10.314Z,18.55
2022-09-27T03:07:34.299Z,19.55
2022-09-27T03:07:57.242Z,19.10
2022-09-27T03:08:20.336Z,19.30
2022-09-27T03:08:43.686Z,18.25
2022-09-27T03:09:06.442Z,18.85
2022-09-27T03:09:30.062Z,19.25
2022-09-27T03:09:54.263Z,20.05
2022-09-27T03:10:18.452Z,19.55
2022-09-27T03:10:41.252Z,20.70
2022-09-27T03:11:03.984Z,20.70
2022-09-27T03:11:26.882Z,20.05
2022-09-27T03:11:49.871Z,20.00
2022-09-27T03:12:12.749Z,20.73
2022-09-27T03:12:35.591Z,20.38
2022-09-27T03:13:01.119Z,20.85
2022-09-27T03:13:23.976Z,20.90
2022-09-27T03:14:07.287Z,20.90
2022-09-27T03:14:29.647Z,20.30
2022-09-27T03:14:53.132Z,20.92
2022-09-27T03:15:16.006Z,20.75
2022-09-27T03:15:38.796Z,20.88
2022-09-27T03:16:02.020Z,21.40
2022-09-27T03:16:26.341Z,20.63
2022-09-27T03:16:49.191Z,21.08
2022-09-27T03:17:12.110Z,21.13
2022-09-27T03:17:34.885Z,21.67
2022-09-27T03:17:57.916Z,21.30
2022-09-27T03:18:20.707Z,21.38
2022-09-27T03:18:43.702Z,21.67
2022-09-27T03:19:06.373Z,20.55
2022-09-27T03:19:30.105Z,21.73
2022-09-27T03:19:53.120Z,20.73
2022-09-27T03:20:16.020Z,20.45
2022-09-27T03:20:38.809Z,20.70
2022-09-27T03:21:01.766Z,20.73
2022-09-27T03:21:24.664Z,20.58
2022-09-27T03:21:47.419Z,20.47
2022-09-27T03:22:10.397Z,21.13
2022-09-27T03:22:33.219Z,20.52
2022-09-27T03:22:56.692Z,20.38
2022-09-27T03:23:19.519Z,20.30
2022-09-27T03:23:42.302Z,19.83
2022-09-27T03:24:05.306Z,20.38
2022-09-27T03:24:28.223Z,21.02
2022-09-27T03:24:52.328Z,20.67
2022-09-27T03:25:16.737Z,20.85
2022-09-27T03:25:39.628Z,21.52
2022-09-27T03:26:02.408Z,24.55
2022-09-27T03:26:25.208Z,21.15
2022-09-27T03:26:48.015Z,20.77
2022-09-27T03:27:10.873Z,19.27
2022-09-27T03:27:33.662Z,20.08
2022-09-27T03:27:56.397Z,20.10
2022-09-27T03:28:19.683Z,20.13
2022-09-27T03:28:42.438Z,20.00
2022-09-27T03:29:05.182Z,20.95
2022-09-27T03:29:28.164Z,19.73
2022-09-27T03:29:51.217Z,19.95
2022-09-27T03:30:14.587Z,19.67
2022-09-27T03:30:37.845Z,20.73
2022-09-27T03:31:00.769Z,20.67
2022-09-27T03:31:25.244Z,19.92
2022-09-27T03:31:48.118Z,19.45
2022-09-27T03:32:11.007Z,21.42
2022-09-27T03:32:34.413Z,19.50
2022-09-27T03:32:57.487Z,20.80
2022-09-27T03:33:20.847Z,20.23
2022-09-27T03:33:43.593Z,19.75
2022-09-27T03:34:06.385Z,19.88
2022-09-27T03:34:29.861Z,20.25
2022-09-27T03:34:55.236Z,18.90
2022-09-27T03:35:18.094Z,20.25
2022-09-27T03:35:42.254Z,19.27
2022-09-27T03:36:05.285Z,19.00
2022-09-27T03:36:28.131Z,19.45
2022-09-27T03:36:50.970Z,19.48
2022-09-27T03:37:13.700Z,19.38
2022-09-27T03:37:36.889Z,19.25
2022-09-27T03:38:00.541Z,19.10
2022-09-27T03:38:23.260Z,18.42
2022-09-27T03:38:46.063Z,18.48
2022-09-27T03:39:09.115Z,19.10
2022-09-27T03:39:31.961Z,18.23
2022-09-27T03:39:54.735Z,18.65
2022-09-27T03:40:17.807Z,19.10
2022-09-27T03:40:40.713Z,18.92
2022-09-27T03:41:03.655Z,19.65
2022-09-27T03:41:26.564Z,18.73
2022-09-27T03:41:49.355Z,18.98
2022-09-27T03:42:12.170Z,18.85
2022-09-27T03:42:35.359Z,18.45
2022-09-27T03:42:58.110Z,18.08
2022-09-27T03:43:20.825Z,18.60
2022-09-27T03:43:44.180Z,18.60
2022-09-27T03:44:06.959Z,18.65
2022-09-27T03:44:33.155Z,19.10
2022-09-27T03:44:55.859Z,18.27
2022-09-27T03:45:18.664Z,18.05
2022-09-27T03:45:43.135Z,18.23
2022-09-27T03:46:06.274Z,18.05
2022-09-27T03:46:30.728Z,17.90
2022-09-27T03:46:53.602Z,17.88
2022-09-27T03:47:16.436Z,18.23
2022-09-27T03:47:41.318Z,17.98
2022-09-27T03:48:04.789Z,18.20
2022-09-27T03:48:28.377Z,17.60
2022-09-27T03:48:51.503Z,17.10
2022-09-27T03:49:14.413Z,17.80
2022-09-27T03:49:37.599Z,18.70
2022-09-27T03:50:00.799Z,17.80
2022-09-27T03:50:23.550Z,18.13
2022-09-27T03:50:46.325Z,18.42
2022-09-27T03:51:09.755Z,18.60
2022-09-27T03:51:32.475Z,18.77
2022-09-27T03:51:55.279Z,18.38
2022-09-27T03:52:21.508Z,18.75
2022-09-27T03:52:44.322Z,18.73
2022-09-27T03:53:07.128Z,18.90
2022-09-27T03:53:30.074Z,19.45
2022-09-27T03:53:52.808Z,19.52
2022-09-27T03:54:15.555Z,19.77
2022-09-27T03:54:38.627Z,19.60
2022-09-27T03:55:02.472Z,18.95
2022-09-27T03:55:25.404Z,19.85
2022-09-27T03:55:48.244Z,20.45
2022-09-27T03:56:11.020Z,19.90
2022-09-27T03:56:34.185Z,19.80
2022-09-27T03:56:57.037Z,21.33
2022-09-27T03:57:19.833Z,20.25
2022-09-27T03:57:45.462Z,20.17
2022-09-27T03:58:08.220Z,22.33
2022-09-27T03:58:31.169Z,20.88
2022-09-27T03:58:53.928Z,20.30
2022-09-27T03:59:16.898Z,21.48
2022-09-27T03:59:40.012Z,19.92
2022-09-27T04:00:02.790Z,21.25
2022-09-27T04:00:26.411Z,20.92
2022-09-27T04:00:50.727Z,21.00
2022-09-27T04:01:14.103Z,21.65
2022-09-27T04:01:39.141Z,22.08
2022-09-27T04:02:01.957Z,21.33
2022-09-27T04:02:24.917Z,21.60
2022-09-27T04:02:47.871Z,21.77
2022-09-27T04:03:11.204Z,20.77
2022-09-27T04:03:35.216Z,21.30
2022-09-27T04:03:57.990Z,22.35
2022-09-27T04:04:20.775Z,21.25
2022-09-27T04:04:43.475Z,21.25
2022-09-27T04:05:07.295Z,21.52
2022-09-27T04:05:30.096Z,22.08
2022-09-27T04:05:52.791Z,21.63
2022-09-27T04:06:15.555Z,21.33
2022-09-27T04:06:38.312Z,21.75
2022-09-27T04:07:01.065Z,21.55
2022-09-27T04:07:23.945Z,21.27
2022-09-27T04:07:48.358Z,21.23
2022-09-27T04:08:12.020Z,23.05
2022-09-27T04:08:35.036Z,21.23
2022-09-27T04:08:57.802Z,20.65
2022-09-27T04:09:20.611Z,20.85
2022-09-27T04:09:44.906Z,20.98
2022-09-27T04:10:09.187Z,20.50
2022-09-27T04:10:34.822Z,21.38
2022-09-27T04:10:57.534Z,20.92
2022-09-27T04:11:20.233Z,21.42
2022-09-27T04:11:44.020Z,21.52
2022-09-27T04:12:06.837Z,21.60
2022-09-27T04:12:30.256Z,21.48
2022-09-27T04:12:53.207Z,21.15
2022-09-27T04:13:16.011Z,21.45
2022-09-27T04:13:38.738Z,22.38
2022-09-27T04:14:02.110Z,23.60
2022-09-27T04:14:24.907Z,21.85
2022-09-27T04:14:47.759Z,22.10
2022-09-27T04:15:11.375Z,22.38
2022-09-27T04:15:34.138Z,22.23
2022-09-27T04:15:56.927Z,22.35
2022-09-27T04:16:19.726Z,22.20
2022-09-27T04:16:44.181Z,22.92
2022-09-27T04:17:07.441Z,23.02
2022-09-27T04:17:30.403Z,21.73
2022-09-27T04:17:53.194Z,21.85
2022-09-27T04:18:15.913Z,20.48
2022-09-27T04:18:40.288Z,21.10
2022-09-27T04:19:03.399Z,21.38
2022-09-27T04:19:26.255Z,22.52
2022-09-27T04:19:49.226Z,20.38
2022-09-27T04:20:13.611Z,19.42
2022-09-27T04:20:36.607Z,19.08
2022-09-27T04:20:59.372Z,17.90
2022-09-27T04:21:23.084Z,17.70
2022-09-27T04:21:45.796Z,16.80
2022-09-27T04:22:08.567Z,16.52
2022-09-27T04:22:31.368Z,16.85
2022-09-27T04:22:54.147Z,16.40
2022-09-27T04:23:16.989Z,16.25
2022-09-27T04:23:39.687Z,16.90
2022-09-27T04:24:02.784Z,17.52
2022-09-27T04:24:25.573Z,19.77
2022-09-27T04:24:48.452Z,16.05
2022-09-27T04:25:11.254Z,15.98
2022-09-27T04:25:33.998Z,16.60
2022-09-27T04:25:58.510Z,17.38
2022-09-27T04:26:21.334Z,17.13
2022-09-27T04:26:44.132Z,16.15
2022-09-27T04:27:06.954Z,16.17
2022-09-27T04:27:29.812Z,14.70
2022-09-27T04:27:55.062Z,14.57
2022-09-27T04:28:17.853Z,14.43
2022-09-27T04:28:41.138Z,14.63
2022-09-27T04:29:04.010Z,14.15
2022-09-27T04:29:26.858Z,13.90
2022-09-27T04:29:49.618Z,14.10
2022-09-27T04:30:13.317Z,14.07
2022-09-27T04:30:36.270Z,15.07
2022-09-27T04:30:59.834Z,14.68
2022-09-27T04:31:22.977Z,13.85
2022-09-27T04:31:48.058Z,14.23
2022-09-27T04:32:11.369Z,13.82
2022-09-27T04:32:34.074Z,13.52
2022-09-27T04:32:56.833Z,13.65
2022-09-27T04:33:19.692Z,14.43
2022-09-27T04:33:42.513Z,13.85
2022-09-27T04:34:05.340Z,14.00
2022-09-27T04:34:54.528Z,13.40
2022-09-27T04:35:37.353Z,15.27
2022-09-27T04:36:18.728Z,13.23
2022-09-27T04:36:41.469Z,14.68
2022-09-27T04:37:04.194Z,13.95
2022-09-27T04:37:27.174Z,13.57
2022-09-27T04:37:49.939Z,13.23
2022-09-27T04:38:14.509Z,13.15
2022-09-27T04:38:37.311Z,12.85
2022-09-27T04:39:01.243Z,12.77
2022-09-27T04:39:24.014Z,12.73
2022-09-27T04:39:46.831Z,13.73
2022-09-27T04:40:10.229Z,15.02
2022-09-27T04:40:34.516Z,13.23
2022-09-27T04:40:57.459Z,12.85
2022-09-27T04:41:21.838Z,12.55
2022-09-27T04:41:45.470Z,12.77
2022-09-27T04:42:09.493Z,12.60
2022-09-27T04:42:34.161Z,13.13
2022-09-27T04:42:57.039Z,13.15
2022-09-27T04:43:19.972Z,13.07
2022-09-27T04:43:45.760Z,12.88
2022-09-27T04:44:08.616Z,13.15
2022-09-27T04:44:31.861Z,12.15
2022-09-27T04:44:54.615Z,11.50
2022-09-27T04:45:17.938Z,12.70
2022-09-27T04:45:40.825Z,14.32
2022-09-27T04:46:03.698Z,11.25
2022-09-27T04:46:32.299Z,12.82
2022-09-27T04:46:56.641Z,12.07
2022-09-27T04:47:21.471Z,11.10
2022-09-27T04:47:44.429Z,11.48
2022-09-27T04:48:07.198Z,12.38
2022-09-27T04:48:30.034Z,10.98
2022-09-27T04:48:52.810Z,11.93
2022-09-27T04:49:17.669Z,10.98
2022-09-27T04:49:40.973Z,10.75
2022-09-27T04:50:03.934Z,10.43
2022-09-27T04:50:32.156Z,12.18
2022-09-27T04:50:58.491Z,11.10
2022-09-27T04:51:21.214Z,10.40
2022-09-27T04:51:44.030Z,10.63
2022-09-27T04:52:06.816Z,11.25
2022-09-27T04:52:29.621Z,10.77
2022-09-27T04:52:52.613Z,10.50
2022-09-27T04:53:15.406Z,11.38
2022-09-27T04:53:38.810Z,11.13
2022-09-27T04:54:02.070Z,11.05
2022-09-27T04:54:25.113Z,10.15
2022-09-27T04:54:47.936Z,10.02
2022-09-27T04:55:11.045Z,10.60
2022-09-27T04:55:33.920Z,10.30
2022-09-27T04:55:57.704Z,10.85
2022-09-27T04:56:20.455Z,10.80
2022-09-27T04:56:43.316Z,10.07
2022-09-27T04:57:06.155Z,10.20
2022-09-27T04:57:28.922Z,10.25
2022-09-27T04:57:51.668Z,10.65
2022-09-27T04:58:14.370Z,10.27
2022-09-27T04:58:37.261Z,10.55
2022-09-27T04:59:01.602Z,10.47
2022-09-27T04:59:24.460Z,10.05
2022-09-27T04:59:47.296Z,11.23
2022-09-27T05:00:12.351Z,11.05
2022-09-27T05:00:35.141Z,10.18
2022-09-27T05:00:57.955Z,11.60
2022-09-27T05:01:20.935Z,11.45
2022-09-27T05:01:43.878Z,13.30
2022-09-27T05:02:08.462Z,12.75
2022-09-27T05:02:31.682Z,10.48
2022-09-27T05:02:54.580Z,11.30
2022-09-27T05:03:17.481Z,11.55
2022-09-27T05:03:40.391Z,11.77
2022-09-27T05:04:04.221Z,10.98
2022-09-27T05:04:26.983Z,13.23
2022-09-27T05:04:49.780Z,10.50
2022-09-27T05:05:12.755Z,11.48
2022-09-27T05:05:36.194Z,12.38
2022-09-27T05:05:59.215Z,10.88
2022-09-27T05:06:21.955Z,10.60
2022-09-27T05:06:44.731Z,10.73
2022-09-27T05:07:07.505Z,10.23
2022-09-27T05:07:30.250Z,14.13
2022-09-27T05:07:53.060Z,11.35
2022-09-27T05:08:15.839Z,10.35
2022-09-27T05:08:38.713Z,10.77
2022-09-27T05:09:02.251Z,10.57
2022-09-27T05:09:25.111Z,10.27
2022-09-27T05:09:47.851Z,10.55
2022-09-27T05:10:10.640Z,9.10
2022-09-27T05:10:33.398Z,9.00
2022-09-27T05:10:56.852Z,9.30
2022-09-27T05:11:19.556Z,8.82
2022-09-27T05:11:42.341Z,8.35
2022-09-27T05:12:07.887Z,8.27
2022-09-27T05:12:30.680Z,8.52
2022-09-27T05:12:53.374Z,8.57
2022-09-27T05:13:16.317Z,8.30
2022-09-27T05:13:39.116Z,8.98
2022-09-27T05:14:01.838Z,9.02
2022-09-27T05:14:52.467Z,8.43
2022-09-27T05:15:15.372Z,9.35
2022-09-27T05:15:39.067Z,8.15
2022-09-27T05:16:04.010Z,9.73
2022-09-27T05:16:29.720Z,8.60
2022-09-27T05:16:55.591Z,8.85
2022-09-27T05:17:21.875Z,9.88
2022-09-27T05:17:45.797Z,9.38
2022-09-27T05:18:09.872Z,8.75
2022-09-27T05:18:33.609Z,9.05
2022-09-27T05:18:58.736Z,9.55
2022-09-27T05:19:21.531Z,8.75
2022-09-27T05:19:45.222Z,9.13
2022-09-27T05:20:10.753Z,8.95
2022-09-27T05:20:33.487Z,9.50
2022-09-27T05:20:59.072Z,8.60
2022-09-27T05:21:21.777Z,9.57